Time;durP1;ratioP1;P1;durP2;ratioP2;P2;SDS_P1;SDS_P2;PMS_P1;PMS_P2;Temp;Humidity;BMP_temperature;BMP_pressure;BME280_temperature;BME280_humidity;BME280_pressure;Samples;Min_cycle;Max_cycle;Signal;HPM_P1;HPM_P2
2023/08/23 00:00:15;;;;;;;4.53;3.08;;;;;;;;;;4981988;28;25106;-72
2023/08/23 00:02:42;;;;;;;4.28;2.90;;;;;;;;;;4970398;28;25069;-73
2023/08/23 00:05:08;;;;;;;4.10;3.10;;;;;;;;;;4976381;28;25075;-74
2023/08/23 00:07:34;;;;;;;4.70;3.30;;;;;;;;;;4983509;28;25074;-73
2023/08/23 00:10:00;;;;;;;9.10;3.90;;;;;;;;;;4987023;28;25091;-73
2023/08/23 00:12:26;;;;;;;3.90;3.15;;;;;;;;;;4978011;28;25069;-73
2023/08/23 00:14:52;;;;;;;4.93;3.13;;;;;;;;;;4979780;28;25091;-74
2023/08/23 00:17:18;;;;;;;6.22;3.20;;;;;;;;;;4980583;28;25093;-74
2023/08/23 00:19:46;;;;;;;5.78;3.60;;;;;;;;;;4982557;28;25068;-73
2023/08/23 00:22:12;;;;;;;5.78;3.35;;;;;;;;;;4986131;28;25089;-72
2023/08/23 00:24:38;;;;;;;7.35;3.75;;;;;;;;;;4988711;28;25100;-73
2023/08/23 00:27:04;;;;;;;7.22;3.80;;;;;;;;;;4984757;28;25104;-74
2023/08/23 00:29:30;;;;;;;7.93;3.80;;;;;;;;;;4980142;28;25071;-73
2023/08/23 00:31:56;;;;;;;6.07;3.42;;;;;;;;;;4982233;28;25163;-72
2023/08/23 00:34:22;;;;;;;5.88;3.55;;;;;;;;;;4984014;28;25066;-72
2023/08/23 00:36:48;;;;;;;6.53;3.95;;;;;;;;;;4991763;28;25074;-71
2023/08/23 00:39:14;;;;;;;7.60;3.70;;;;;;;;;;4987011;28;25059;-72
2023/08/23 00:41:40;;;;;;;6.93;3.10;;;;;;;;;;5000198;28;25075;-71
2023/08/23 00:44:06;;;;;;;6.07;4.03;;;;;;;;;;4994162;28;25103;-73
2023/08/23 00:46:33;;;;;;;7.15;3.97;;;;;;;;;;4985363;28;25134;-72
2023/08/23 00:49:00;;;;;;;9.57;3.55;;;;;;;;;;4990665;28;25074;-73
2023/08/23 00:51:26;;;;;;;8.00;3.72;;;;;;;;;;4984411;28;25065;-71
2023/08/23 00:53:52;;;;;;;5.45;3.20;;;;;;;;;;4983934;28;25088;-71
2023/08/23 00:56:18;;;;;;;4.32;3.15;;;;;;;;;;4985267;28;25096;-72
2023/08/23 00:58:44;;;;;;;4.32;3.45;;;;;;;;;;4987697;28;25135;-72
2023/08/23 01:01:10;;;;;;;6.78;4.43;;;;;;;;;;4983920;28;25086;-71
2023/08/23 01:03:36;;;;;;;9.70;3.42;;;;;;;;;;4976903;28;25068;-72
2023/08/23 01:06:14;;;;;;;7.75;3.70;;;;;;;;;;4983120;28;25059;-72
2023/08/23 01:08:55;;;;;;;9.30;3.85;;;;;;;;;;4978812;28;25106;-71
2023/08/23 01:11:27;;;;;;;9.65;4.30;;;;;;;;;;4986869;28;25053;-74
2023/08/23 01:14:00;;;;;;;5.72;4.03;;;;;;;;;;4987531;28;25056;-72
2023/08/23 01:16:26;;;;;;;11.63;4.75;;;;;;;;;;4979617;28;25061;-72
2023/08/23 01:18:53;;;;;;;8.95;4.97;;;;;;;;;;4988954;28;25086;-72
2023/08/23 01:21:23;;;;;;;7.03;3.92;;;;;;;;;;4987284;28;25055;-73
2023/08/23 01:23:49;;;;;;;6.82;4.18;;;;;;;;;;4979778;28;25060;-72
2023/08/23 01:26:15;;;;;;;9.95;4.70;;;;;;;;;;4999780;28;25078;-73
2023/08/23 01:28:41;;;;;;;7.40;5.25;;;;;;;;;;4991448;28;25063;-72
2023/08/23 01:31:11;;;;;;;10.45;6.72;;;;;;;;;;4993250;28;25142;-72
2023/08/23 01:33:50;;;;;;;9.07;5.88;;;;;;;;;;4987112;28;25074;-71
2023/08/23 01:36:16;;;;;;;15.52;7.15;;;;;;;;;;4983052;28;25062;-71
2023/08/23 01:38:43;;;;;;;11.90;6.82;;;;;;;;;;4990702;28;25148;-72
2023/08/23 01:41:09;;;;;;;10.15;6.05;;;;;;;;;;4985493;28;25060;-71
2023/08/23 01:43:35;;;;;;;10.52;6.50;;;;;;;;;;5002811;28;25129;-71
2023/08/23 01:46:01;;;;;;;11.60;7.07;;;;;;;;;;4996012;28;25063;-71
2023/08/23 01:48:27;;;;;;;11.38;7.25;;;;;;;;;;4984740;28;25104;-72
2023/08/23 01:50:53;;;;;;;11.02;6.85;;;;;;;;;;4982935;28;25081;-72
2023/08/23 01:53:19;;;;;;;12.35;7.72;;;;;;;;;;4983337;28;25045;-71
2023/08/23 01:55:45;;;;;;;10.15;7.32;;;;;;;;;;4982356;28;25149;-72
2023/08/23 01:58:11;;;;;;;13.75;8.10;;;;;;;;;;4977728;28;25074;-72
2023/08/23 02:00:37;;;;;;;13.00;9.25;;;;;;;;;;4976916;28;25114;-72
2023/08/23 02:03:03;;;;;;;16.48;7.95;;;;;;;;;;4980465;28;25175;-71
2023/08/23 02:05:32;;;;;;;14.93;8.85;;;;;;;;;;4979633;28;25101;-70
2023/08/23 02:07:58;;;;;;;11.02;7.32;;;;;;;;;;4982410;28;25058;-70
2023/08/23 02:10:24;;;;;;;11.60;7.47;;;;;;;;;;4987720;28;25054;-71
2023/08/23 02:12:50;;;;;;;15.50;8.05;;;;;;;;;;4980165;28;25085;-72
2023/08/23 02:15:16;;;;;;;12.20;8.18;;;;;;;;;;4988315;28;25108;-72
2023/08/23 02:17:42;;;;;;;14.40;8.57;;;;;;;;;;4987857;28;25066;-70
2023/08/23 02:20:08;;;;;;;13.10;7.95;;;;;;;;;;4978443;28;25128;-73
2023/08/23 02:22:34;;;;;;;13.07;8.18;;;;;;;;;;4985198;28;25151;-70
2023/08/23 02:25:00;;;;;;;11.63;6.97;;;;;;;;;;4984866;28;25081;-70
2023/08/23 02:27:26;;;;;;;9.75;7.63;;;;;;;;;;4989365;28;25144;-73
2023/08/23 02:29:52;;;;;;;11.48;7.53;;;;;;;;;;4988544;28;25071;-72
2023/08/23 02:32:18;;;;;;;13.20;8.73;;;;;;;;;;4990068;28;25056;-71
2023/08/23 02:34:44;;;;;;;13.43;8.77;;;;;;;;;;4991456;28;25069;-73
2023/08/23 02:37:10;;;;;;;16.98;9.82;;;;;;;;;;4986348;28;25060;-73
2023/08/23 02:39:36;;;;;;;17.58;8.18;;;;;;;;;;4979125;28;25066;-71
2023/08/23 02:42:02;;;;;;;15.18;8.57;;;;;;;;;;4992691;28;25078;-71
2023/08/23 02:44:28;;;;;;;16.95;9.38;;;;;;;;;;4985638;28;25149;-72
2023/08/23 02:46:54;;;;;;;13.93;8.65;;;;;;;;;;4972150;28;25054;-71
2023/08/23 02:49:20;;;;;;;12.48;9.15;;;;;;;;;;4968103;28;25127;-69
2023/08/23 02:51:46;;;;;;;12.25;8.63;;;;;;;;;;4967515;28;25083;-70
2023/08/23 02:54:12;;;;;;;15.13;9.43;;;;;;;;;;4985148;28;25078;-73
2023/08/23 02:56:38;;;;;;;16.92;9.68;;;;;;;;;;4985998;28;25064;-70
2023/08/23 02:59:04;;;;;;;15.18;9.07;;;;;;;;;;4994839;28;25063;-72
2023/08/23 03:01:30;;;;;;;16.05;9.38;;;;;;;;;;4992646;28;25156;-71
2023/08/23 03:03:56;;;;;;;14.30;9.15;;;;;;;;;;4991225;28;25098;-72
2023/08/23 03:06:22;;;;;;;16.60;9.48;;;;;;;;;;4991497;28;25098;-70
2023/08/23 03:08:48;;;;;;;15.00;8.70;;;;;;;;;;4984641;28;25069;-71
2023/08/23 03:11:14;;;;;;;13.13;8.85;;;;;;;;;;4976960;28;25070;-70
2023/08/23 03:13:40;;;;;;;14.90;8.93;;;;;;;;;;4977393;28;25090;-71
2023/08/23 03:16:06;;;;;;;15.25;8.10;;;;;;;;;;4991348;28;25078;-71
2023/08/23 03:18:32;;;;;;;12.98;8.85;;;;;;;;;;4983018;28;25057;-70
2023/08/23 03:20:58;;;;;;;14.48;8.98;;;;;;;;;;4986423;28;25119;-72
2023/08/23 03:23:24;;;;;;;14.15;7.70;;;;;;;;;;4994459;28;25103;-71
2023/08/23 03:25:50;;;;;;;15.23;8.02;;;;;;;;;;4990462;28;25070;-72
2023/08/23 03:28:16;;;;;;;12.10;8.43;;;;;;;;;;4988152;28;25066;-72
2023/08/23 03:30:42;;;;;;;14.63;8.60;;;;;;;;;;4982514;28;25160;-70
2023/08/23 03:33:08;;;;;;;13.85;8.18;;;;;;;;;;4987948;28;25099;-70
2023/08/23 03:35:34;;;;;;;14.77;8.90;;;;;;;;;;4981666;28;25065;-71
2023/08/23 03:38:00;;;;;;;13.30;8.23;;;;;;;;;;4994613;28;25171;-71
2023/08/23 03:40:26;;;;;;;16.20;8.90;;;;;;;;;;4989671;28;25159;-73
2023/08/23 03:42:52;;;;;;;12.88;8.75;;;;;;;;;;4984042;28;25075;-71
2023/08/23 03:45:19;;;;;;;14.77;8.85;;;;;;;;;;4981864;28;25142;-70
2023/08/23 03:47:45;;;;;;;14.93;8.20;;;;;;;;;;4990316;28;25112;-70
2023/08/23 03:50:12;;;;;;;13.85;8.52;;;;;;;;;;4986833;28;25066;-70
2023/08/23 03:52:38;;;;;;;13.15;8.32;;;;;;;;;;4991158;28;25071;-71
2023/08/23 03:55:04;;;;;;;11.30;8.48;;;;;;;;;;4987375;28;25085;-73
2023/08/23 03:57:31;;;;;;;14.80;9.43;;;;;;;;;;4993243;28;25069;-71
2023/08/23 03:59:57;;;;;;;12.52;8.15;;;;;;;;;;4988528;28;25056;-72
2023/08/23 04:02:23;;;;;;;11.23;8.23;;;;;;;;;;4987330;28;25132;-72
2023/08/23 04:04:49;;;;;;;13.88;8.85;;;;;;;;;;4983707;28;25139;-69
2023/08/23 04:07:16;;;;;;;18.83;9.98;;;;;;;;;;4996161;28;25057;-72
2023/08/23 04:09:42;;;;;;;18.88;9.25;;;;;;;;;;4983857;28;25054;-71
2023/08/23 04:12:09;;;;;;;16.88;8.68;;;;;;;;;;4990230;28;25063;-71
2023/08/23 04:14:35;;;;;;;17.98;9.93;;;;;;;;;;4991457;28;25102;-72
2023/08/23 04:17:01;;;;;;;16.75;10.73;;;;;;;;;;4990610;28;25150;-74
2023/08/23 04:19:27;;;;;;;18.25;11.13;;;;;;;;;;4994468;28;25078;-70
2023/08/23 04:21:54;;;;;;;22.70;14.32;;;;;;;;;;4986585;28;25056;-71
2023/08/23 04:24:20;;;;;;;14.98;10.20;;;;;;;;;;4981717;28;25158;-71
2023/08/23 04:26:46;;;;;;;19.25;12.13;;;;;;;;;;4983085;28;25100;-73
2023/08/23 04:29:12;;;;;;;20.38;11.02;;;;;;;;;;4987926;28;25086;-71
2023/08/23 04:31:38;;;;;;;31.38;14.10;;;;;;;;;;4991213;28;25077;-71
2023/08/23 04:34:04;;;;;;;19.67;12.10;;;;;;;;;;4976235;28;25076;-73
2023/08/23 04:36:31;;;;;;;21.10;12.30;;;;;;;;;;4977593;28;25073;-70
2023/08/23 04:38:57;;;;;;;21.48;13.85;;;;;;;;;;4974789;28;25072;-72
2023/08/23 04:41:23;;;;;;;27.98;13.75;;;;;;;;;;4996094;28;25072;-70
2023/08/23 04:43:49;;;;;;;24.42;12.85;;;;;;;;;;4993764;28;25056;-70
2023/08/23 04:46:15;;;;;;;24.17;12.75;;;;;;;;;;4991222;28;25062;-72
2023/08/23 04:48:41;;;;;;;25.90;15.00;;;;;;;;;;4983228;28;25149;-71
2023/08/23 04:51:10;;;;;;;28.25;15.20;;;;;;;;;;4975004;28;25101;-72
2023/08/23 04:53:37;;;;;;;25.27;15.30;;;;;;;;;;4980527;28;25063;-71
2023/08/23 04:56:03;;;;;;;23.85;14.50;;;;;;;;;;4984968;28;25076;-72
2023/08/23 04:58:32;;;;;;;26.17;16.45;;;;;;;;;;4979886;28;25087;-71
2023/08/23 05:01:03;;;;;;;24.20;14.15;;;;;;;;;;4982360;28;25160;-70
2023/08/23 05:03:30;;;;;;;24.50;14.27;;;;;;;;;;4984543;28;25057;-72
2023/08/23 05:05:56;;;;;;;28.63;15.98;;;;;;;;;;4982073;28;25074;-73
2023/08/23 05:08:22;;;;;;;25.48;15.45;;;;;;;;;;4986041;28;25148;-72
2023/08/23 05:10:52;;;;;;;26.42;15.35;;;;;;;;;;4974144;28;25092;-73
2023/08/23 05:13:18;;;;;;;26.27;16.23;;;;;;;;;;4987942;28;25129;-71
2023/08/23 05:15:44;;;;;;;27.45;16.65;;;;;;;;;;4985633;28;25159;-73
2023/08/23 05:18:10;;;;;;;27.38;17.00;;;;;;;;;;4985655;28;25051;-70
2023/08/23 05:20:36;;;;;;;30.20;17.65;;;;;;;;;;4995580;28;25054;-72
2023/08/23 05:23:02;;;;;;;34.40;18.17;;;;;;;;;;4980657;28;25072;-73
2023/08/23 05:25:28;;;;;;;26.63;15.95;;;;;;;;;;4981754;28;25059;-71
2023/08/23 05:27:54;;;;;;;28.23;16.45;;;;;;;;;;4984927;28;25049;-72
2023/08/23 05:30:20;;;;;;;27.98;17.17;;;;;;;;;;4995374;28;25062;-72
2023/08/23 05:32:46;;;;;;;26.75;15.77;;;;;;;;;;4982552;28;25102;-73
2023/08/23 05:35:12;;;;;;;24.73;16.02;;;;;;;;;;4997647;28;25156;-72
2023/08/23 05:37:40;;;;;;;25.67;15.55;;;;;;;;;;4983651;28;25143;-73
2023/08/23 05:40:07;;;;;;;27.98;16.38;;;;;;;;;;4980027;28;25056;-73
2023/08/23 05:42:33;;;;;;;23.80;14.77;;;;;;;;;;4988320;28;25161;-72
2023/08/23 05:44:59;;;;;;;22.60;15.23;;;;;;;;;;4994162;28;25062;-72
2023/08/23 05:47:25;;;;;;;23.30;14.85;;;;;;;;;;4990041;28;25078;-72
2023/08/23 05:49:51;;;;;;;23.42;14.75;;;;;;;;;;4980444;28;25150;-73
2023/08/23 05:52:17;;;;;;;25.55;13.40;;;;;;;;;;4994860;28;25097;-73
2023/08/23 05:54:43;;;;;;;28.88;15.98;;;;;;;;;;4992059;28;25069;-73
2023/08/23 05:57:09;;;;;;;21.70;14.20;;;;;;;;;;4991124;28;25062;-72
2023/08/23 05:59:35;;;;;;;25.45;14.57;;;;;;;;;;4986490;28;25066;-71
2023/08/23 06:02:01;;;;;;;21.98;14.73;;;;;;;;;;4978782;28;25119;-72
2023/08/23 06:04:28;;;;;;;27.23;14.85;;;;;;;;;;4981076;28;25065;-72
2023/08/23 06:06:54;;;;;;;22.35;14.73;;;;;;;;;;4993602;28;25155;-73
2023/08/23 06:09:21;;;;;;;30.00;16.88;;;;;;;;;;4997051;28;25093;-72
2023/08/23 06:11:47;;;;;;;27.80;15.63;;;;;;;;;;4997943;28;25078;-73
2023/08/23 06:14:20;;;;;;;30.50;16.33;;;;;;;;;;4993557;28;25141;-72
2023/08/23 06:16:46;;;;;;;26.27;16.42;;;;;;;;;;4994124;28;25078;-72
2023/08/23 06:19:12;;;;;;;25.17;16.63;;;;;;;;;;4982138;28;25054;-70
2023/08/23 06:21:38;;;;;;;28.00;15.88;;;;;;;;;;4993535;28;25121;-71
2023/08/23 06:24:04;;;;;;;23.95;14.98;;;;;;;;;;4990245;28;25115;-72
2023/08/23 06:26:30;;;;;;;25.45;14.82;;;;;;;;;;4991827;28;25063;-71
2023/08/23 06:28:56;;;;;;;21.88;14.23;;;;;;;;;;4982526;28;25065;-72
2023/08/23 06:31:22;;;;;;;22.30;14.82;;;;;;;;;;4984869;28;25139;-71
2023/08/23 06:33:48;;;;;;;23.35;14.52;;;;;;;;;;4981982;28;25112;-71
2023/08/23 06:36:14;;;;;;;35.47;15.50;;;;;;;;;;4984800;28;25078;-71
2023/08/23 06:38:44;;;;;;;25.30;14.15;;;;;;;;;;4978467;28;25052;-71
2023/08/23 06:41:10;;;;;;;19.52;12.63;;;;;;;;;;4985467;28;25167;-70
2023/08/23 06:43:36;;;;;;;22.77;14.02;;;;;;;;;;4983994;28;25116;-70
2023/08/23 06:46:02;;;;;;;30.85;15.18;;;;;;;;;;4978311;28;25176;-70
2023/08/23 06:48:28;;;;;;;21.13;12.70;;;;;;;;;;4995428;28;25085;-71
2023/08/23 06:50:54;;;;;;;22.88;13.32;;;;;;;;;;4990206;28;25051;-71
2023/08/23 06:53:21;;;;;;;20.10;12.65;;;;;;;;;;4981100;28;25074;-72
2023/08/23 06:55:47;;;;;;;27.40;14.15;;;;;;;;;;4993210;28;25070;-72
2023/08/23 06:58:15;;;;;;;25.90;14.18;;;;;;;;;;4985203;28;25107;-72
2023/08/23 07:00:41;;;;;;;21.23;14.20;;;;;;;;;;4987224;28;25071;-70
2023/08/23 07:03:07;;;;;;;22.73;13.80;;;;;;;;;;4983574;28;25151;-71
2023/08/23 07:05:34;;;;;;;21.90;13.90;;;;;;;;;;4985069;28;25056;-70
2023/08/23 07:08:00;;;;;;;25.40;14.25;;;;;;;;;;4977667;28;25087;-71
2023/08/23 07:10:26;;;;;;;21.05;14.18;;;;;;;;;;4981316;28;25071;-72
2023/08/23 07:12:52;;;;;;;23.92;13.50;;;;;;;;;;4981000;28;25091;-72
2023/08/23 07:15:19;;;;;;;27.52;14.43;;;;;;;;;;4980825;28;25175;-71
2023/08/23 07:17:45;;;;;;;27.48;14.30;;;;;;;;;;4995421;28;25076;-72
2023/08/23 07:20:13;;;;;;;34.00;14.90;;;;;;;;;;4996409;28;25061;-71
2023/08/23 07:22:39;;;;;;;23.92;13.38;;;;;;;;;;4990989;28;25163;-70
2023/08/23 07:25:06;;;;;;;21.67;13.30;;;;;;;;;;4988383;28;25077;-73
2023/08/23 07:27:32;;;;;;;27.48;14.07;;;;;;;;;;4986346;28;25048;-72
2023/08/23 07:29:58;;;;;;;28.13;14.88;;;;;;;;;;4995731;28;25072;-71
2023/08/23 07:32:24;;;;;;;24.20;13.32;;;;;;;;;;4989470;28;25182;-71
2023/08/23 07:34:51;;;;;;;32.55;14.18;;;;;;;;;;4985668;28;25056;-71
2023/08/23 07:37:17;;;;;;;23.25;13.85;;;;;;;;;;4990767;28;25172;-74
2023/08/23 07:39:43;;;;;;;26.40;13.75;;;;;;;;;;4995371;28;25062;-72
2023/08/23 07:42:09;;;;;;;20.40;13.02;;;;;;;;;;4992170;28;25065;-74
2023/08/23 07:44:36;;;;;;;22.20;11.80;;;;;;;;;;4994084;28;25099;-72
2023/08/23 07:47:02;;;;;;;22.00;12.73;;;;;;;;;;5000979;28;25151;-72
2023/08/23 07:49:28;;;;;;;19.05;10.75;;;;;;;;;;4989381;28;25061;-71
2023/08/23 07:51:54;;;;;;;20.02;11.80;;;;;;;;;;5000299;28;25100;-72
2023/08/23 07:54:20;;;;;;;21.88;11.93;;;;;;;;;;5004571;28;25087;-70
2023/08/23 07:56:46;;;;;;;18.20;11.70;;;;;;;;;;4999194;28;25074;-73
2023/08/23 07:59:12;;;;;;;17.05;11.00;;;;;;;;;;4988398;28;25074;-72
2023/08/23 08:01:38;;;;;;;21.83;12.57;;;;;;;;;;4977585;28;25065;-72
2023/08/23 08:04:04;;;;;;;21.60;11.60;;;;;;;;;;4984777;28;25061;-72
2023/08/23 08:06:30;;;;;;;17.00;11.15;;;;;;;;;;4989776;28;25049;-74
2023/08/23 08:08:56;;;;;;;21.10;11.95;;;;;;;;;;4996113;28;25059;-72
2023/08/23 08:11:22;;;;;;;21.02;10.52;;;;;;;;;;4985629;28;25076;-72
2023/08/23 08:13:48;;;;;;;22.58;11.80;;;;;;;;;;4991081;28;25068;-72
2023/08/23 08:16:14;;;;;;;17.35;10.52;;;;;;;;;;4990468;28;25065;-73
2023/08/23 08:18:42;;;;;;;20.60;11.18;;;;;;;;;;4989055;28;25068;-72
2023/08/23 08:21:09;;;;;;;19.70;11.95;;;;;;;;;;4980346;28;25071;-73
2023/08/23 08:23:35;;;;;;;19.25;12.05;;;;;;;;;;4997820;28;25078;-72
2023/08/23 08:26:02;;;;;;;16.70;10.20;;;;;;;;;;4994689;28;25097;-72
2023/08/23 08:28:28;;;;;;;21.30;11.27;;;;;;;;;;4994989;28;25058;-71
2023/08/23 08:30:54;;;;;;;17.40;9.85;;;;;;;;;;4978232;28;25111;-72
2023/08/23 08:33:20;;;;;;;19.42;10.30;;;;;;;;;;4978339;28;25100;-72
2023/08/23 08:35:46;;;;;;;16.42;10.25;;;;;;;;;;4982209;28;25135;-74
2023/08/23 08:38:12;;;;;;;24.33;12.48;;;;;;;;;;4980708;28;25062;-71
2023/08/23 08:40:39;;;;;;;20.55;13.52;;;;;;;;;;4976903;28;25063;-73
2023/08/23 08:43:05;;;;;;;20.42;13.63;;;;;;;;;;4985029;28;25101;-72
2023/08/23 08:45:32;;;;;;;22.27;13.55;;;;;;;;;;4988477;28;25057;-72
2023/08/23 08:47:58;;;;;;;25.25;14.60;;;;;;;;;;4976471;28;25192;-73
2023/08/23 08:50:25;;;;;;;23.73;13.13;;;;;;;;;;4986216;28;25099;-72
2023/08/23 08:52:53;;;;;;;20.23;11.10;;;;;;;;;;4985044;28;25137;-73
2023/08/23 08:55:20;;;;;;;20.45;13.25;;;;;;;;;;4985771;28;25078;-73
2023/08/23 08:57:47;;;;;;;22.77;13.00;;;;;;;;;;4985849;28;25144;-72
2023/08/23 09:00:13;;;;;;;18.58;11.90;;;;;;;;;;4996354;28;25071;-73
2023/08/23 09:02:40;;;;;;;20.85;10.73;;;;;;;;;;4985925;28;25139;-72
2023/08/23 09:05:07;;;;;;;21.75;10.93;;;;;;;;;;4980902;28;25197;-71
2023/08/23 09:07:32;;;;;;;19.55;10.90;;;;;;;;;;4971644;28;25068;-72
2023/08/23 09:09:59;;;;;;;20.88;12.00;;;;;;;;;;4978226;28;25072;-71
2023/08/23 09:12:25;;;;;;;21.05;13.20;;;;;;;;;;4988567;28;25060;-72
2023/08/23 09:14:51;;;;;;;23.33;11.95;;;;;;;;;;4983151;28;25077;-72
2023/08/23 09:17:22;;;;;;;19.00;11.95;;;;;;;;;;4982426;28;25066;-72
2023/08/23 09:19:49;;;;;;;18.90;12.50;;;;;;;;;;4994900;28;25073;-73
2023/08/23 09:22:21;;;;;;;24.70;13.27;;;;;;;;;;4987784;28;25075;-72
2023/08/23 09:24:47;;;;;;;17.52;10.07;;;;;;;;;;4987318;28;25083;-74
2023/08/23 09:27:14;;;;;;;19.52;10.60;;;;;;;;;;4979916;28;25077;-74
2023/08/23 09:29:40;;;;;;;17.17;10.05;;;;;;;;;;4996819;28;25073;-72
2023/08/23 09:32:06;;;;;;;18.67;10.32;;;;;;;;;;4982351;28;25065;-72
2023/08/23 09:34:32;;;;;;;20.35;10.73;;;;;;;;;;4982498;28;25101;-73
2023/08/23 09:37:07;;;;;;;19.20;11.65;;;;;;;;;;4979511;28;25105;-73
2023/08/23 09:39:33;;;;;;;21.20;12.05;;;;;;;;;;4980221;28;25066;-72
2023/08/23 09:42:03;;;;;;;15.88;9.95;;;;;;;;;;4990047;28;25063;-73
2023/08/23 09:44:40;;;;;;;18.50;10.02;;;;;;;;;;4978825;28;25094;-72
2023/08/23 09:47:09;;;;;;;15.43;7.93;;;;;;;;;;4978787;28;25090;-74
2023/08/23 09:49:36;;;;;;;13.40;6.40;;;;;;;;;;4988866;28;25172;-73
2023/08/23 09:52:03;;;;;;;14.95;8.43;;;;;;;;;;4976224;28;25108;-72
2023/08/23 09:54:49;;;;;;;12.25;7.22;;;;;;;;;;4975303;28;25059;-71
2023/08/23 09:57:15;;;;;;;13.13;6.47;;;;;;;;;;4975045;28;25036;-73
2023/08/23 09:59:43;;;;;;;15.70;7.43;;;;;;;;;;4980156;28;25060;-73
2023/08/23 10:02:10;;;;;;;17.05;6.95;;;;;;;;;;4979682;28;25086;-72
2023/08/23 10:04:36;;;;;;;10.38;7.35;;;;;;;;;;4991504;28;25147;-72
2023/08/23 10:07:03;;;;;;;11.02;7.28;;;;;;;;;;4962881;28;25102;-72
2023/08/23 10:09:29;;;;;;;16.25;7.93;;;;;;;;;;4984766;28;25079;-73
2023/08/23 10:11:55;;;;;;;10.35;5.70;;;;;;;;;;4979437;28;25064;-72
2023/08/23 10:14:21;;;;;;;15.10;5.88;;;;;;;;;;4984874;28;25090;-72
2023/08/23 10:16:48;;;;;;;9.90;5.75;;;;;;;;;;4990520;28;25057;-74
2023/08/23 10:19:14;;;;;;;12.57;7.35;;;;;;;;;;4985263;28;25057;-72
2023/08/23 10:21:40;;;;;;;18.25;7.80;;;;;;;;;;4993669;28;25110;-73
2023/08/23 10:24:06;;;;;;;9.60;4.35;;;;;;;;;;4986329;28;25105;-71
2023/08/23 10:26:44;;;;;;;9.55;4.47;;;;;;;;;;4999467;28;25084;-72
2023/08/23 10:29:10;;;;;;;12.30;4.85;;;;;;;;;;4996331;28;25085;-73
2023/08/23 10:31:36;;;;;;;12.35;6.95;;;;;;;;;;4994068;28;25067;-72
2023/08/23 10:34:02;;;;;;;16.10;8.65;;;;;;;;;;4987710;28;25064;-71
2023/08/23 10:36:29;;;;;;;11.27;6.53;;;;;;;;;;4986078;28;25069;-73
2023/08/23 10:38:59;;;;;;;14.93;7.63;;;;;;;;;;4975040;28;25059;-73
2023/08/23 10:41:28;;;;;;;16.83;7.35;;;;;;;;;;4976164;28;25089;-73
2023/08/23 10:43:54;;;;;;;13.07;7.00;;;;;;;;;;4962813;28;25053;-72
2023/08/23 10:46:22;;;;;;;16.20;7.15;;;;;;;;;;4992895;28;25058;-73
2023/08/23 10:48:48;;;;;;;18.33;8.43;;;;;;;;;;4976846;28;25076;-72
2023/08/23 10:51:15;;;;;;;16.50;7.38;;;;;;;;;;4982066;28;25105;-72
2023/08/23 10:53:42;;;;;;;13.63;6.40;;;;;;;;;;4970152;28;25074;-72
2023/08/23 10:56:09;;;;;;;11.27;5.50;;;;;;;;;;4982011;28;25103;-72
2023/08/23 10:58:36;;;;;;;12.60;6.70;;;;;;;;;;4977310;28;25137;-75
2023/08/23 11:01:02;;;;;;;13.38;5.80;;;;;;;;;;4985942;28;25078;-73
2023/08/23 11:03:29;;;;;;;9.30;5.30;;;;;;;;;;4975562;28;25136;-71
2023/08/23 11:05:55;;;;;;;9.77;3.90;;;;;;;;;;4988990;28;25061;-72
2023/08/23 11:08:23;;;;;;;10.27;5.20;;;;;;;;;;4983644;28;25072;-74
2023/08/23 11:10:50;;;;;;;7.80;4.63;;;;;;;;;;4997690;28;25104;-72
2023/08/23 11:13:16;;;;;;;11.52;4.85;;;;;;;;;;4991838;28;25174;-72
2023/08/23 11:15:45;;;;;;;6.15;4.47;;;;;;;;;;4983319;28;25062;-71
2023/08/23 11:18:13;;;;;;;11.32;4.93;;;;;;;;;;4976871;28;25064;-72
2023/08/23 11:20:39;;;;;;;11.73;5.82;;;;;;;;;;4990354;28;25121;-72
2023/08/23 11:23:05;;;;;;;10.05;6.03;;;;;;;;;;4987928;28;25152;-73
2023/08/23 11:25:31;;;;;;;9.05;5.30;;;;;;;;;;5002675;28;25078;-73
2023/08/23 11:27:58;;;;;;;9.82;5.35;;;;;;;;;;4986842;28;25132;-73
2023/08/23 11:30:24;;;;;;;9.13;5.05;;;;;;;;;;4982158;28;25061;-73
2023/08/23 11:32:50;;;;;;;14.68;6.53;;;;;;;;;;4986493;28;25059;-72
2023/08/23 11:35:22;;;;;;;13.43;7.68;;;;;;;;;;4995546;28;25055;-73
2023/08/23 11:37:52;;;;;;;10.18;5.75;;;;;;;;;;4991567;28;25053;-72
2023/08/23 11:40:18;;;;;;;11.73;6.10;;;;;;;;;;4997302;28;25108;-72
2023/08/23 11:42:45;;;;;;;10.73;5.97;;;;;;;;;;4996165;28;25091;-71
2023/08/23 11:45:11;;;;;;;12.23;5.45;;;;;;;;;;4992907;28;25072;-73
2023/08/23 11:47:37;;;;;;;9.68;5.25;;;;;;;;;;4985196;28;25071;-72
2023/08/23 11:50:07;;;;;;;14.70;6.60;;;;;;;;;;4984582;28;25079;-73
2023/08/23 11:52:33;;;;;;;9.85;6.97;;;;;;;;;;4993155;28;25084;-73
2023/08/23 11:55:02;;;;;;;10.57;5.63;;;;;;;;;;4984645;28;25074;-72
2023/08/23 11:57:31;;;;;;;10.68;5.80;;;;;;;;;;4982482;28;25134;-72
2023/08/23 11:59:57;;;;;;;16.08;7.18;;;;;;;;;;4991119;28;25053;-73
2023/08/23 12:02:23;;;;;;;12.93;5.95;;;;;;;;;;4982574;28;25053;-73
2023/08/23 12:04:49;;;;;;;10.27;4.90;;;;;;;;;;4993982;28;25047;-73
2023/08/23 12:07:15;;;;;;;9.13;4.13;;;;;;;;;;4996528;28;25080;-73
2023/08/23 12:09:41;;;;;;;8.07;4.60;;;;;;;;;;4986595;28;25046;-71
2023/08/23 12:12:07;;;;;;;9.25;3.65;;;;;;;;;;4981817;28;25100;-72
2023/08/23 12:14:33;;;;;;;11.90;5.38;;;;;;;;;;4988180;28;25054;-71
2023/08/23 12:16:59;;;;;;;9.20;5.13;;;;;;;;;;4988724;28;25056;-73
2023/08/23 12:19:25;;;;;;;9.32;4.95;;;;;;;;;;4979698;28;25075;-71
2023/08/23 12:21:51;;;;;;;9.32;4.75;;;;;;;;;;4994785;28;25064;-72
2023/08/23 12:24:18;;;;;;;6.65;4.30;;;;;;;;;;4988709;28;25058;-71
2023/08/23 12:26:44;;;;;;;8.00;5.03;;;;;;;;;;4988626;28;25146;-72
2023/08/23 12:29:10;;;;;;;6.90;4.18;;;;;;;;;;4987653;28;25100;-72
2023/08/23 12:31:36;;;;;;;17.77;5.72;;;;;;;;;;4982050;28;25131;-72
2023/08/23 12:34:02;;;;;;;8.15;4.18;;;;;;;;;;4982888;28;25071;-72
2023/08/23 12:36:28;;;;;;;6.78;3.95;;;;;;;;;;4992789;28;25099;-71
2023/08/23 12:38:54;;;;;;;9.07;4.10;;;;;;;;;;4987971;28;25051;-73
2023/08/23 12:41:20;;;;;;;9.13;5.03;;;;;;;;;;4989624;28;25062;-72
2023/08/23 12:43:46;;;;;;;11.25;3.92;;;;;;;;;;4989731;28;25148;-71
2023/08/23 12:46:12;;;;;;;9.48;4.05;;;;;;;;;;4997105;28;25107;-72
2023/08/23 12:48:38;;;;;;;8.57;4.40;;;;;;;;;;4993947;28;25151;-74
2023/08/23 12:51:04;;;;;;;9.38;3.95;;;;;;;;;;4993286;28;25064;-75
2023/08/23 12:53:30;;;;;;;8.77;2.90;;;;;;;;;;4987607;28;25074;-71
2023/08/23 12:55:56;;;;;;;10.45;2.53;;;;;;;;;;4994391;28;25100;-74
2023/08/23 12:58:22;;;;;;;7.50;3.20;;;;;;;;;;4986950;28;25065;-73
2023/08/23 13:00:48;;;;;;;4.43;2.70;;;;;;;;;;4982243;28;25090;-72
2023/08/23 13:03:14;;;;;;;9.48;2.78;;;;;;;;;;4982238;28;25139;-72
2023/08/23 13:05:40;;;;;;;6.13;2.60;;;;;;;;;;4986415;28;25066;-71
2023/08/23 13:08:06;;;;;;;6.13;2.15;;;;;;;;;;4987331;28;25116;-72
2023/08/23 13:10:33;;;;;;;3.78;2.45;;;;;;;;;;4982154;28;25176;-72
2023/08/23 13:12:59;;;;;;;3.42;2.08;;;;;;;;;;4988325;28;25075;-71
2023/08/23 13:15:25;;;;;;;3.53;2.20;;;;;;;;;;4990380;28;25347;-71
2023/08/23 13:17:58;;;;;;;7.78;2.28;;;;;;;;;;4978293;28;25146;-72
2023/08/23 13:20:24;;;;;;;4.82;1.83;;;;;;;;;;4977717;28;25071;-72
2023/08/23 13:22:50;;;;;;;3.83;2.22;;;;;;;;;;4978399;28;25087;-74
2023/08/23 13:25:16;;;;;;;4.15;1.90;;;;;;;;;;4993572;28;25075;-73
2023/08/23 13:27:42;;;;;;;19.27;3.35;;;;;;;;;;4981679;28;25071;-71
2023/08/23 13:30:09;;;;;;;11.23;2.65;;;;;;;;;;4984665;28;25080;-73
2023/08/23 13:32:35;;;;;;;7.82;2.70;;;;;;;;;;4984566;28;25177;-72
2023/08/23 13:35:01;;;;;;;3.90;2.33;;;;;;;;;;4994580;28;25066;-73
2023/08/23 13:37:27;;;;;;;5.70;1.73;;;;;;;;;;4980445;28;25063;-73
2023/08/23 13:39:53;;;;;;;8.20;2.30;;;;;;;;;;4999005;28;25053;-73
2023/08/23 13:42:19;;;;;;;6.40;2.60;;;;;;;;;;4995763;28;25148;-72
2023/08/23 13:44:45;;;;;;;7.20;1.98;;;;;;;;;;4982006;28;25152;-73
2023/08/23 13:47:11;;;;;;;3.05;1.80;;;;;;;;;;4989046;28;25082;-72
2023/08/23 13:49:37;;;;;;;4.88;2.05;;;;;;;;;;4992633;28;25115;-71
2023/08/23 13:52:03;;;;;;;7.07;2.00;;;;;;;;;;4989254;28;25114;-74
2023/08/23 13:54:29;;;;;;;4.20;1.80;;;;;;;;;;4985634;28;25065;-73
2023/08/23 13:56:55;;;;;;;2.63;1.70;;;;;;;;;;4977134;28;25133;-73
2023/08/23 13:59:21;;;;;;;5.35;2.08;;;;;;;;;;4976905;28;25131;-72
2023/08/23 14:01:47;;;;;;;5.68;1.85;;;;;;;;;;4981002;28;25073;-74
2023/08/23 14:04:13;;;;;;;5.35;1.92;;;;;;;;;;4987137;28;25126;-72
2023/08/23 14:06:39;;;;;;;7.05;1.95;;;;;;;;;;4988759;28;25154;-73
2023/08/23 14:09:05;;;;;;;8.55;3.05;;;;;;;;;;4976906;28;25048;-74
2023/08/23 14:11:36;;;;;;;9.57;3.10;;;;;;;;;;4978304;28;25129;-72
2023/08/23 14:14:02;;;;;;;6.38;2.40;;;;;;;;;;4977841;28;25150;-72
2023/08/23 14:16:27;;;;;;;5.78;2.60;;;;;;;;;;4973521;28;25112;-73
2023/08/23 14:18:53;;;;;;;6.97;2.75;;;;;;;;;;4991955;28;25073;-76
2023/08/23 14:21:19;;;;;;;6.72;3.03;;;;;;;;;;4982356;28;25100;-74
2023/08/23 14:23:45;;;;;;;8.18;2.90;;;;;;;;;;4975782;28;25103;-74